createdAt,value
2022-12-08T00:01:25.798Z,12.40
2022-12-08T00:03:54.636Z,14.90
2022-12-08T00:06:51.692Z,22.33
2022-12-08T00:09:43.951Z,14.30
2022-12-08T00:12:15.405Z,21.08
2022-12-08T00:14:47.669Z,18.40
2022-12-08T00:17:16.798Z,15.88
2022-12-08T00:19:44.323Z,24.98
2022-12-08T00:22:12.497Z,16.77
2022-12-08T00:24:41.060Z,17.45
2022-12-08T00:27:10.283Z,17.60
2022-12-08T00:29:37.285Z,19.77
2022-12-08T00:32:05.189Z,16.27
2022-12-08T00:34:33.197Z,12.00
2022-12-08T00:37:00.316Z,20.45
2022-12-08T00:39:27.373Z,21.15
2022-12-08T00:42:12.617Z,17.73
2022-12-08T00:44:44.052Z,17.88
2022-12-08T00:47:12.457Z,19.27
2022-12-08T00:49:39.449Z,17.27
2022-12-08T00:52:06.717Z,29.67
2022-12-08T00:54:33.678Z,23.08
2022-12-08T00:57:00.680Z,21.33
2022-12-08T00:59:27.753Z,28.45
2022-12-08T01:01:54.817Z,24.08
2022-12-08T01:04:22.168Z,15.77
2022-12-08T01:06:49.380Z,23.42
2022-12-08T01:09:17.764Z,16.50
2022-12-08T01:11:45.448Z,11.55
2022-12-08T01:14:16.099Z,17.05
2022-12-08T01:16:43.916Z,27.20
2022-12-08T01:19:15.618Z,20.50
2022-12-08T01:21:44.325Z,21.63
2022-12-08T01:24:18.820Z,18.80
2022-12-08T01:26:46.437Z,23.13
2022-12-08T01:29:13.857Z,19.98
2022-12-08T01:31:41.021Z,17.23
2022-12-08T01:34:08.856Z,16.08
2022-12-08T01:36:39.481Z,19.73
2022-12-08T01:39:10.776Z,13.90
2022-12-08T01:41:38.871Z,22.17
2022-12-08T01:44:08.930Z,13.98
2022-12-08T01:46:39.317Z,20.05
2022-12-08T01:49:18.130Z,15.70
2022-12-08T01:52:05.295Z,18.23
2022-12-08T01:54:48.962Z,27.48
2022-12-08T01:57:32.617Z,15.40
2022-12-08T03:51:12.946Z,9.90
2022-12-08T03:53:40.031Z,6.28
2022-12-08T03:56:30.019Z,6.55
2022-12-08T03:58:57.161Z,7.07
2022-12-08T04:01:24.682Z,5.65
2022-12-08T04:03:52.200Z,11.23
2022-12-08T04:06:20.551Z,3.53
2022-12-08T04:08:48.320Z,3.72
2022-12-08T04:11:15.341Z,5.10
2022-12-08T04:13:43.285Z,1.95
2022-12-08T04:16:21.043Z,8.23
2022-12-08T04:18:48.503Z,8.90
2022-12-08T04:21:15.683Z,8.15
2022-12-08T04:23:43.169Z,4.97
2022-12-08T04:26:10.357Z,4.55
2022-12-08T04:28:37.572Z,6.32
2022-12-08T04:38:26.151Z,5.32
2022-12-08T17:05:25.380Z,23.65
2022-12-08T17:07:53.478Z,24.77
2022-12-08T17:10:25.257Z,19.70
2022-12-08T17:15:24.564Z,72.60
2022-12-08T17:17:52.308Z,49.85
2022-12-08T17:20:26.164Z,26.55
2022-12-08T17:22:58.204Z,49.33
2022-12-08T17:25:26.819Z,52.55
2022-12-08T17:27:54.280Z,37.63
2022-12-08T17:30:24.005Z,23.88
2022-12-08T17:32:52.921Z,23.23
2022-12-08T17:35:20.198Z,15.95
2022-12-08T17:37:47.810Z,19.10
2022-12-08T17:40:14.768Z,18.02
2022-12-08T17:42:42.481Z,20.45
2022-12-08T17:45:10.073Z,20.98
2022-12-08T17:47:37.511Z,21.90
2022-12-08T17:50:06.630Z,18.70
2022-12-08T17:52:33.957Z,21.30
2022-12-08T17:55:01.195Z,26.08
2022-12-08T17:57:28.213Z,22.75
2022-12-08T17:59:55.344Z,20.98
2022-12-08T18:02:22.441Z,26.35
2022-12-08T18:04:49.492Z,22.08
2022-12-08T18:07:16.621Z,27.00
2022-12-08T18:09:43.603Z,20.92
2022-12-08T18:12:10.609Z,25.70
2022-12-08T18:14:37.613Z,32.17
2022-12-08T18:17:04.731Z,32.10
2022-12-08T18:19:31.934Z,23.98
2022-12-08T18:21:59.078Z,21.50
2022-12-08T18:24:26.110Z,32.67
2022-12-08T18:26:53.383Z,24.83
2022-12-08T18:29:22.780Z,27.40
2022-12-08T18:31:51.554Z,26.73
2022-12-08T18:34:21.811Z,29.35
2022-12-08T18:36:48.929Z,28.20
2022-12-08T18:39:26.123Z,25.35
2022-12-08T18:41:56.460Z,28.85
2022-12-08T18:44:23.620Z,28.92
2022-12-08T18:46:51.994Z,28.58
2022-12-08T18:49:20.770Z,32.88
2022-12-08T18:51:48.310Z,26.88
2022-12-08T18:54:22.022Z,27.65
2022-12-08T18:56:51.846Z,31.75
2022-12-08T18:59:20.607Z,39.00
2022-12-08T19:01:48.308Z,29.05
2022-12-08T19:04:34.681Z,30.23
2022-12-08T19:07:02.340Z,29.85
2022-12-08T19:09:29.600Z,31.20
2022-12-08T19:11:57.016Z,34.67
2022-12-08T19:14:28.219Z,30.05
2022-12-08T19:19:27.193Z,36.38
2022-12-08T19:21:56.529Z,109.60
2022-12-08T19:24:24.534Z,74.47
2022-12-08T19:26:52.109Z,66.00
2022-12-08T19:29:19.147Z,61.05
2022-12-08T19:31:46.791Z,95.07
2022-12-08T19:34:14.518Z,57.30
2022-12-08T19:36:43.063Z,42.33
2022-12-08T19:39:41.456Z,40.40
2022-12-08T19:42:38.506Z,40.58
2022-12-08T19:45:18.548Z,37.70
2022-12-08T19:47:45.704Z,37.28
2022-12-08T19:50:32.984Z,38.65
2022-12-08T19:53:01.116Z,39.40
2022-12-08T19:55:28.897Z,42.85
2022-12-08T19:57:57.262Z,52.85
2022-12-08T20:00:24.870Z,39.35
2022-12-08T20:02:52.264Z,45.15
2022-12-08T20:05:24.676Z,37.63
2022-12-08T20:07:56.245Z,42.03
2022-12-08T20:10:28.328Z,41.47
2022-12-08T20:13:16.451Z,36.35
2022-12-08T20:15:44.836Z,41.67
2022-12-08T20:18:13.246Z,40.10
2022-12-08T20:20:41.451Z,40.60
2022-12-08T20:23:08.642Z,48.95
2022-12-08T20:25:39.962Z,46.17
2022-12-08T20:28:07.739Z,42.28
2022-12-08T20:30:37.852Z,46.38
2022-12-08T20:33:04.884Z,41.67
2022-12-08T20:35:32.140Z,41.35
2022-12-08T20:38:00.274Z,44.00
2022-12-08T20:40:27.362Z,53.03
2022-12-08T20:42:54.422Z,49.35
2022-12-08T20:45:22.124Z,61.03
2022-12-08T20:47:49.282Z,60.92
2022-12-08T20:50:16.688Z,44.15
2022-12-08T20:52:43.968Z,46.97
2022-12-08T20:55:12.049Z,51.05
2022-12-08T20:57:39.221Z,42.55
2022-12-08T21:00:10.830Z,45.95
2022-12-08T21:02:43.237Z,43.58
2022-12-08T21:05:12.380Z,51.83
2022-12-08T21:07:39.473Z,54.75
2022-12-08T21:10:08.116Z,47.47
2022-12-08T21:12:35.331Z,44.25
2022-12-08T21:15:07.383Z,45.20
2022-12-08T21:35:11.533Z,58.58
2022-12-08T21:42:34.317Z,53.63
2022-12-08T21:45:19.410Z,53.10
2022-12-08T22:03:16.337Z,61.30
2022-12-08T22:06:13.105Z,55.67
2022-12-08T22:09:13.487Z,59.63
2022-12-08T22:19:28.418Z,105.97
2022-12-08T22:21:55.512Z,100.05
2022-12-08T22:24:22.674Z,135.15
2022-12-08T22:26:49.918Z,89.82
2022-12-08T22:29:17.136Z,62.78
2022-12-08T22:31:44.302Z,64.88
2022-12-08T22:34:12.041Z,62.67
2022-12-08T22:36:42.666Z,67.57
2022-12-08T22:39:10.480Z,59.83
2022-12-08T22:41:39.951Z,69.57
2022-12-08T22:44:12.835Z,68.57
2022-12-08T22:46:39.991Z,71.80
2022-12-08T22:49:07.162Z,65.50
2022-12-08T22:51:38.727Z,67.70
2022-12-08T22:54:12.848Z,63.15
2022-12-08T22:56:43.970Z,63.45
2022-12-08T22:59:12.224Z,62.72
2022-12-08T23:01:39.255Z,62.55
2022-12-08T23:04:17.455Z,71.00
2022-12-08T23:06:48.972Z,63.95
2022-12-08T23:09:16.172Z,71.03
2022-12-08T23:11:45.464Z,60.72
2022-12-08T23:14:12.527Z,66.60
2022-12-08T23:16:39.827Z,71.63
2022-12-08T23:19:08.981Z,69.47
2022-12-08T23:21:42.235Z,66.68
2022-12-08T23:24:10.350Z,72.07
2022-12-08T23:26:37.696Z,71.05
2022-12-08T23:29:07.896Z,69.40
2022-12-08T23:31:38.477Z,67.28
2022-12-08T23:34:07.660Z,73.05
2022-12-08T23:36:34.852Z,70.32
2022-12-08T23:39:02.126Z,67.97
2022-12-08T23:41:31.344Z,70.28
2022-12-08T23:43:58.474Z,65.38
2022-12-08T23:46:25.676Z,69.95
2022-12-08T23:48:52.811Z,73.40
2022-12-08T23:51:22.946Z,64.97
2022-12-08T23:53:58.146Z,68.45
2022-12-08T23:56:30.034Z,80.63
2022-12-08T23:58:57.576Z,78.38
